sensor_id;sensor_type;location;lat;lon;timestamp;pressure;altitude;pressure_sealevel;temperature;humidity
59787;BME280;45672;51.612;5.536;2023-04-09T00:00:40;102388.34;;;9.77;97.64
59787;BME280;45672;51.612;5.536;2023-04-09T00:03:05;102383.13;;;9.76;96.91
59787;BME280;45672;51.612;5.536;2023-04-09T00:05:31;102384.22;;;9.73;97.87
59787;BME280;45672;51.612;5.536;2023-04-09T00:07:56;102387.41;;;9.78;98.12
59787;BME280;45672;51.612;5.536;2023-04-09T00:10:21;102381.13;;;9.79;98.33
59787;BME280;45672;51.612;5.536;2023-04-09T00:12:47;102379.19;;;9.81;98.43
59787;BME280;45672;51.612;5.536;2023-04-09T00:15:12;102378.22;;;9.82;98.08
59787;BME280;45672;51.612;5.536;2023-04-09T00:17:37;102378.34;;;9.81;98.38
59787;BME280;45672;51.612;5.536;2023-04-09T00:20:03;102377.59;;;9.79;98.47
59787;BME280;45672;51.612;5.536;2023-04-09T00:22:29;102366.97;;;9.79;98.20
59787;BME280;45672;51.612;5.536;2023-04-09T00:24:54;102366.13;;;9.78;97.58
59787;BME280;45672;51.612;5.536;2023-04-09T00:27:20;102369.25;;;9.72;98.52
59787;BME280;45672;51.612;5.536;2023-04-09T00:29:45;102367.53;;;9.71;98.73
59787;BME280;45672;51.612;5.536;2023-04-09T00:32:11;102365.00;;;9.70;98.77
59787;BME280;45672;51.612;5.536;2023-04-09T00:34:37;102359.69;;;9.70;98.83
59787;BME280;45672;51.612;5.536;2023-04-09T00:37:03;102362.44;;;9.68;99.25
59787;BME280;45672;51.612;5.536;2023-04-09T00:39:28;102355.44;;;9.67;99.25
59787;BME280;45672;51.612;5.536;2023-04-09T00:41:57;102363.28;;;9.69;99.23
59787;BME280;45672;51.612;5.536;2023-04-09T00:44:23;102371.16;;;9.70;99.84
59787;BME280;45672;51.612;5.536;2023-04-09T00:46:49;102361.34;;;9.71;98.97
59787;BME280;45672;51.612;5.536;2023-04-09T00:49:15;102357.13;;;9.68;99.34
59787;BME280;45672;51.612;5.536;2023-04-09T00:51:41;102352.78;;;9.67;99.19
59787;BME280;45672;51.612;5.536;2023-04-09T00:54:06;102350.94;;;9.68;99.01
59787;BME280;45672;51.612;5.536;2023-04-09T00:56:32;102357.13;;;9.68;99.23
59787;BME280;45672;51.612;5.536;2023-04-09T00:58:58;102357.44;;;9.63;98.89
59787;BME280;45672;51.612;5.536;2023-04-09T01:01:23;102359.91;;;9.66;99.63
59787;BME280;45672;51.612;5.536;2023-04-09T01:03:48;102352.78;;;9.67;99.36
59787;BME280;45672;51.612;5.536;2023-04-09T01:06:41;102353.84;;;9.64;99.70
59787;BME280;45672;51.612;5.536;2023-04-09T01:09:17;102345.97;;;9.63;99.53
59787;BME280;45672;51.612;5.536;2023-04-09T01:12:04;102350.56;;;9.61;99.47
59787;BME280;45672;51.612;5.536;2023-04-09T01:17:24;102342.06;;;9.56;100.00
59787;BME280;45672;51.612;5.536;2023-04-09T01:22:47;102340.59;;;9.52;100.00
59787;BME280;45672;51.612;5.536;2023-04-09T01:25:31;102348.69;;;9.50;100.00
59787;BME280;45672;51.612;5.536;2023-04-09T01:28:09;102341.66;;;9.49;100.00
59787;BME280;45672;51.612;5.536;2023-04-09T01:30:38;102341.53;;;9.51;100.00
59787;BME280;45672;51.612;5.536;2023-04-09T01:33:04;102342.63;;;9.48;100.00
59787;BME280;45672;51.612;5.536;2023-04-09T01:35:30;102331.25;;;9.46;100.00
59787;BME280;45672;51.612;5.536;2023-04-09T01:37:56;102327.00;;;9.43;100.00
59787;BME280;45672;51.612;5.536;2023-04-09T01:40:23;102341.03;;;9.45;100.00
59787;BME280;45672;51.612;5.536;2023-04-09T01:42:48;102337.53;;;9.45;100.00
59787;BME280;45672;51.612;5.536;2023-04-09T01:45:15;102332.44;;;9.42;100.00
59787;BME280;45672;51.612;5.536;2023-04-09T01:47:41;102328.06;;;9.41;100.00
59787;BME280;45672;51.612;5.536;2023-04-09T01:50:07;102333.31;;;9.42;100.00
59787;BME280;45672;51.612;5.536;2023-04-09T01:52:32;102330.72;;;9.41;100.00
59787;BME280;45672;51.612;5.536;2023-04-09T01:54:58;102329.66;;;9.43;100.00
59787;BME280;45672;51.612;5.536;2023-04-09T01:57:23;102327.13;;;9.42;100.00
59787;BME280;45672;51.612;5.536;2023-04-09T01:59:48;102339.56;;;9.41;100.00
59787;BME280;45672;51.612;5.536;2023-04-09T02:02:21;102333.72;;;9.36;100.00
59787;BME280;45672;51.612;5.536;2023-04-09T02:04:53;102331.06;;;9.36;100.00
59787;BME280;45672;51.612;5.536;2023-04-09T02:07:23;102338.94;;;9.38;100.00
59787;BME280;45672;51.612;5.536;2023-04-09T02:09:52;102329.59;;;9.32;100.00
59787;BME280;45672;51.612;5.536;2023-04-09T02:12:19;102332.13;;;9.34;100.00
59787;BME280;45672;51.612;5.536;2023-04-09T02:14:47;102335.78;;;9.32;100.00
59787;BME280;45672;51.612;5.536;2023-04-09T02:17:15;102336.72;;;9.31;100.00
59787;BME280;45672;51.612;5.536;2023-04-09T02:19:42;102332.47;;;9.29;100.00
59787;BME280;45672;51.612;5.536;2023-04-09T02:22:09;102336.84;;;9.30;100.00
59787;BME280;45672;51.612;5.536;2023-04-09T02:24:34;102327.91;;;9.31;100.00
59787;BME280;45672;51.612;5.536;2023-04-09T02:27:00;102330.56;;;9.31;100.00
59787;BME280;45672;51.612;5.536;2023-04-09T02:29:26;102331.53;;;9.30;100.00
59787;BME280;45672;51.612;5.536;2023-04-09T02:31:51;102326.22;;;9.30;100.00
59787;BME280;45672;51.612;5.536;2023-04-09T02:34:18;102322.69;;;9.29;100.00
59787;BME280;45672;51.612;5.536;2023-04-09T02:36:43;102316.66;;;9.27;100.00
59787;BME280;45672;51.612;5.536;2023-04-09T02:39:08;102314.94;;;9.26;100.00
59787;BME280;45672;51.612;5.536;2023-04-09T02:41:34;102320.03;;;9.29;100.00
59787;BME280;45672;51.612;5.536;2023-04-09T02:43:59;102318.97;;;9.32;100.00
59787;BME280;45672;51.612;5.536;2023-04-09T02:46:25;102323.22;;;9.35;100.00
59787;BME280;45672;51.612;5.536;2023-04-09T02:48:50;102320.78;;;9.31;100.00
59787;BME280;45672;51.612;5.536;2023-04-09T02:51:15;102313.53;;;9.34;100.00
59787;BME280;45672;51.612;5.536;2023-04-09T02:53:40;102312.28;;;9.26;100.00
59787;BME280;45672;51.612;5.536;2023-04-09T02:56:06;102312.28;;;9.26;100.00
59787;BME280;45672;51.612;5.536;2023-04-09T02:58:31;102311.34;;;9.27;100.00
59787;BME280;45672;51.612;5.536;2023-04-09T03:00:56;102318.59;;;9.25;100.00
59787;BME280;45672;51.612;5.536;2023-04-09T03:03:22;102307.53;;;9.19;100.00
59787;BME280;45672;51.612;5.536;2023-04-09T03:05:47;102309.97;;;9.22;100.00
59787;BME280;45672;51.612;5.536;2023-04-09T03:08:12;102308.25;;;9.21;100.00
59787;BME280;45672;51.612;5.536;2023-04-09T03:10:38;102314.56;;;9.20;100.00
59787;BME280;45672;51.612;5.536;2023-04-09T03:13:03;102308.50;;;9.18;100.00
59787;BME280;45672;51.612;5.536;2023-04-09T03:15:28;102310.09;;;9.20;100.00
59787;BME280;45672;51.612;5.536;2023-04-09T03:17:53;102310.09;;;9.20;100.00
59787;BME280;45672;51.612;5.536;2023-04-09T03:20:19;102303.19;;;9.18;100.00
59787;BME280;45672;51.612;5.536;2023-04-09T03:22:44;102302.22;;;9.19;100.00
59787;BME280;45672;51.612;5.536;2023-04-09T03:25:09;102305.84;;;9.18;100.00
59787;BME280;45672;51.612;5.536;2023-04-09T03:27:35;102309.44;;;9.17;100.00
59787;BME280;45672;51.612;5.536;2023-04-09T03:30:00;102307.66;;;9.17;100.00
59787;BME280;45672;51.612;5.536;2023-04-09T03:32:26;102297.97;;;9.16;100.00
59787;BME280;45672;51.612;5.536;2023-04-09T03:34:51;102293.84;;;9.12;100.00
59787;BME280;45672;51.612;5.536;2023-04-09T03:37:17;102293.00;;;9.11;100.00
59787;BME280;45672;51.612;5.536;2023-04-09T03:39:42;102287.91;;;9.08;100.00
59787;BME280;45672;51.612;5.536;2023-04-09T03:42:07;102287.16;;;9.06;100.00
59787;BME280;45672;51.612;5.536;2023-04-09T03:44:33;102292.59;;;9.05;100.00
59787;BME280;45672;51.612;5.536;2023-04-09T03:46:58;102289.94;;;9.05;100.00
59787;BME280;45672;51.612;5.536;2023-04-09T03:49:23;102280.16;;;9.05;100.00
59787;BME280;45672;51.612;5.536;2023-04-09T03:51:48;102287.16;;;9.06;100.00
59787;BME280;45672;51.612;5.536;2023-04-09T03:54:14;102282.31;;;9.00;100.00
59787;BME280;45672;51.612;5.536;2023-04-09T03:56:39;102284.19;;;8.98;100.00
59787;BME280;45672;51.612;5.536;2023-04-09T03:59:05;102278.78;;;9.00;100.00
59787;BME280;45672;51.612;5.536;2023-04-09T04:01:30;102279.34;;;8.92;100.00
59787;BME280;45672;51.612;5.536;2023-04-09T04:03:56;102277.00;;;8.87;100.00
59787;BME280;45672;51.612;5.536;2023-04-09T04:06:21;102276.91;;;8.89;100.00
59787;BME280;45672;51.612;5.536;2023-04-09T04:08:46;102283.16;;;8.88;100.00
59787;BME280;45672;51.612;5.536;2023-04-09T04:11:11;102277.44;;;8.81;100.00
59787;BME280;45672;51.612;5.536;2023-04-09T04:13:37;102286.16;;;8.83;100.00
59787;BME280;45672;51.612;5.536;2023-04-09T04:16:06;102280.41;;;8.76;100.00
59787;BME280;45672;51.612;5.536;2023-04-09T04:18:31;102279.56;;;8.76;100.00
59787;BME280;45672;51.612;5.536;2023-04-09T04:20:56;102286.78;;;8.74;100.00
59787;BME280;45672;51.612;5.536;2023-04-09T04:23:22;102287.09;;;8.69;100.00
59787;BME280;45672;51.612;5.536;2023-04-09T04:25:47;102280.66;;;8.60;100.00
59787;BME280;45672;51.612;5.536;2023-04-09T04:28:12;102277.16;;;8.60;100.00
59787;BME280;45672;51.612;5.536;2023-04-09T04:30:40;102280.00;;;8.57;100.00
59787;BME280;45672;51.612;5.536;2023-04-09T04:33:06;102284.56;;;8.55;100.00
59787;BME280;45672;51.612;5.536;2023-04-09T04:35:31;102282.34;;;8.49;100.00
59787;BME280;45672;51.612;5.536;2023-04-09T04:37:56;102293.34;;;8.42;100.00
59787;BME280;45672;51.612;5.536;2023-04-09T04:40:22;102285.69;;;8.38;100.00
59787;BME280;45672;51.612;5.536;2023-04-09T04:42:47;102288.69;;;8.33;100.00
59787;BME280;45672;51.612;5.536;2023-04-09T04:45:12;102284.09;;;8.22;100.00
59787;BME280;45672;51.612;5.536;2023-04-09T04:47:38;102280.81;;;8.19;100.00
59787;BME280;45672;51.612;5.536;2023-04-09T04:50:03;102283.75;;;8.14;100.00
59787;BME280;45672;51.612;5.536;2023-04-09T04:52:29;102286.94;;;8.06;100.00
59787;BME280;45672;51.612;5.536;2023-04-09T04:54:54;102295.31;;;8.00;100.00
59787;BME280;45672;51.612;5.536;2023-04-09T04:57:19;102291.53;;;7.90;100.00
59787;BME280;45672;51.612;5.536;2023-04-09T04:59:45;102291.31;;;7.80;100.00
59787;BME280;45672;51.612;5.536;2023-04-09T05:02:10;102288.22;;;7.73;100.00
59787;BME280;45672;51.612;5.536;2023-04-09T05:04:35;102303.56;;;7.68;100.00
59787;BME280;45672;51.612;5.536;2023-04-09T05:07:01;102293.75;;;7.56;100.00
59787;BME280;45672;51.612;5.536;2023-04-09T05:09:26;102288.66;;;7.53;100.00
59787;BME280;45672;51.612;5.536;2023-04-09T05:11:51;102293.31;;;7.49;100.00
59787;BME280;45672;51.612;5.536;2023-04-09T05:14:17;102289.16;;;7.45;100.00
59787;BME280;45672;51.612;5.536;2023-04-09T05:16:42;102293.50;;;7.46;100.00
59787;BME280;45672;51.612;5.536;2023-04-09T05:19:07;102294.56;;;7.44;100.00
59787;BME280;45672;51.612;5.536;2023-04-09T05:21:33;102290.31;;;7.41;100.00
59787;BME280;45672;51.612;5.536;2023-04-09T05:23:58;102290.41;;;7.39;100.00
59787;BME280;45672;51.612;5.536;2023-04-09T05:26:23;102282.78;;;7.35;100.00
59787;BME280;45672;51.612;5.536;2023-04-09T05:28:49;102285.78;;;7.29;100.00
59787;BME280;45672;51.612;5.536;2023-04-09T05:31:14;102292.13;;;7.26;100.00
59787;BME280;45672;51.612;5.536;2023-04-09T05:33:40;102290.63;;;7.22;100.00
59787;BME280;45672;51.612;5.536;2023-04-09T05:36:06;102295.91;;;7.22;100.00
59787;BME280;45672;51.612;5.536;2023-04-09T05:38:31;102293.38;;;7.20;100.00
59787;BME280;45672;51.612;5.536;2023-04-09T05:40:57;102289.03;;;7.19;100.00
59787;BME280;45672;51.612;5.536;2023-04-09T05:43:22;102295.84;;;7.23;100.00
59787;BME280;45672;51.612;5.536;2023-04-09T05:45:47;102295.19;;;7.20;100.00
59787;BME280;45672;51.612;5.536;2023-04-09T05:48:13;102292.44;;;7.21;100.00
59787;BME280;45672;51.612;5.536;2023-04-09T05:50:38;102290.72;;;7.20;100.00
59787;BME280;45672;51.612;5.536;2023-04-09T05:53:04;102295.06;;;7.21;100.00
59787;BME280;45672;51.612;5.536;2023-04-09T05:55:30;102293.47;;;7.19;100.00
59787;BME280;45672;51.612;5.536;2023-04-09T05:57:56;102293.25;;;7.22;100.00
59787;BME280;45672;51.612;5.536;2023-04-09T06:00:21;102295.75;;;7.25;100.00
59787;BME280;45672;51.612;5.536;2023-04-09T06:02:47;102291.19;;;7.27;100.00
59787;BME280;45672;51.612;5.536;2023-04-09T06:05:12;102295.34;;;7.31;100.00
59787;BME280;45672;51.612;5.536;2023-04-09T06:07:37;102302.03;;;7.37;100.00
59787;BME280;45672;51.612;5.536;2023-04-09T06:10:03;102295.50;;;7.42;100.00
59787;BME280;45672;51.612;5.536;2023-04-09T06:12:28;102297.00;;;7.47;100.00
59787;BME280;45672;51.612;5.536;2023-04-09T06:14:53;102310.63;;;7.55;100.00
59787;BME280;45672;51.612;5.536;2023-04-09T06:17:18;102297.63;;;7.65;100.00
59787;BME280;45672;51.612;5.536;2023-04-09T06:19:44;102301.16;;;7.78;100.00
59787;BME280;45672;51.612;5.536;2023-04-09T06:22:09;102293.97;;;7.93;100.00
59787;BME280;45672;51.612;5.536;2023-04-09T06:24:37;102286.63;;;8.11;100.00
59787;BME280;45672;51.612;5.536;2023-04-09T06:27:03;102300.72;;;8.11;100.00
59787;BME280;45672;51.612;5.536;2023-04-09T06:29:28;102308.78;;;8.23;100.00
59787;BME280;45672;51.612;5.536;2023-04-09T06:31:53;102305.41;;;8.34;100.00
59787;BME280;45672;51.612;5.536;2023-04-09T06:34:19;102310.88;;;8.58;100.00
59787;BME280;45672;51.612;5.536;2023-04-09T06:36:44;102312.44;;;9.12;99.51
59787;BME280;45672;51.612;5.536;2023-04-09T06:39:10;102310.38;;;9.65;96.78
59787;BME280;45672;51.612;5.536;2023-04-09T06:41:35;102313.13;;;10.24;94.43
59787;BME280;45672;51.612;5.536;2023-04-09T06:44:00;102316.75;;;10.69;91.61
59787;BME280;45672;51.612;5.536;2023-04-09T06:46:26;102321.72;;;11.08;90.11
59787;BME280;45672;51.612;5.536;2023-04-09T06:48:52;102326.41;;;11.50;87.25
59787;BME280;45672;51.612;5.536;2023-04-09T06:51:17;102325.72;;;11.80;85.40
59787;BME280;45672;51.612;5.536;2023-04-09T06:53:42;102327.44;;;12.02;83.91
59787;BME280;45672;51.612;5.536;2023-04-09T06:56:08;102320.22;;;12.47;81.49
59787;BME280;45672;51.612;5.536;2023-04-09T06:58:33;102324.09;;;12.64;80.88
59787;BME280;45672;51.612;5.536;2023-04-09T07:00:59;102328.94;;;13.10;79.04
59787;BME280;45672;51.612;5.536;2023-04-09T07:03:24;102322.78;;;13.80;75.66
59787;BME280;45672;51.612;5.536;2023-04-09T07:05:52;102338.84;;;14.29;73.01
59787;BME280;45672;51.612;5.536;2023-04-09T07:08:18;102338.91;;;14.57;69.86
59787;BME280;45672;51.612;5.536;2023-04-09T07:10:43;102336.72;;;14.99;68.84
59787;BME280;45672;51.612;5.536;2023-04-09T07:13:08;102334.13;;;15.36;67.27
59787;BME280;45672;51.612;5.536;2023-04-09T07:15:33;102336.91;;;15.62;64.21
59787;BME280;45672;51.612;5.536;2023-04-09T07:17:59;102333.56;;;15.32;65.92
59787;BME280;45672;51.612;5.536;2023-04-09T07:20:24;102342.06;;;15.55;63.45
59787;BME280;45672;51.612;5.536;2023-04-09T07:22:50;102345.69;;;15.36;62.48
59787;BME280;45672;51.612;5.536;2023-04-09T07:25:15;102342.44;;;14.57;65.82
59787;BME280;45672;51.612;5.536;2023-04-09T07:27:41;102349.13;;;13.94;67.72
59787;BME280;45672;51.612;5.536;2023-04-09T07:30:09;102342.13;;;13.43;70.68
59787;BME280;45672;51.612;5.536;2023-04-09T07:32:35;102338.69;;;13.21;71.25
59787;BME280;45672;51.612;5.536;2023-04-09T07:35:03;102333.97;;;13.04;71.95
59787;BME280;45672;51.612;5.536;2023-04-09T07:37:29;102335.38;;;12.98;71.87
59787;BME280;45672;51.612;5.536;2023-04-09T07:39:54;102335.13;;;12.80;72.26
59787;BME280;45672;51.612;5.536;2023-04-09T07:42:19;102334.91;;;12.62;72.76
59787;BME280;45672;51.612;5.536;2023-04-09T07:44:45;102327.63;;;12.43;73.98
59787;BME280;45672;51.612;5.536;2023-04-09T07:47:11;102330.81;;;12.37;74.23
59787;BME280;45672;51.612;5.536;2023-04-09T07:49:37;102335.25;;;12.27;76.21
59787;BME280;45672;51.612;5.536;2023-04-09T07:52:03;102338.97;;;12.56;75.93
59787;BME280;45672;51.612;5.536;2023-04-09T07:54:29;102332.38;;;14.12;73.33
59787;BME280;45672;51.612;5.536;2023-04-09T07:56:55;102331.72;;;15.78;64.66
59787;BME280;45672;51.612;5.536;2023-04-09T07:59:22;102345.94;;;16.25;61.48
59787;BME280;45672;51.612;5.536;2023-04-09T08:01:47;102343.09;;;16.26;59.00
59787;BME280;45672;51.612;5.536;2023-04-09T08:04:12;102345.09;;;15.88;61.87
59787;BME280;45672;51.612;5.536;2023-04-09T08:06:38;102344.53;;;15.66;60.95
59787;BME280;45672;51.612;5.536;2023-04-09T08:09:03;102346.56;;;15.55;61.50
59787;BME280;45672;51.612;5.536;2023-04-09T08:11:29;102344.50;;;15.48;61.21
59787;BME280;45672;51.612;5.536;2023-04-09T08:13:54;102340.66;;;14.95;62.41
59787;BME280;45672;51.612;5.536;2023-04-09T08:16:21;102334.41;;;14.67;66.09
59787;BME280;45672;51.612;5.536;2023-04-09T08:18:49;102341.06;;;15.00;63.65
59787;BME280;45672;51.612;5.536;2023-04-09T08:21:14;102341.88;;;15.11;63.59
59787;BME280;45672;51.612;5.536;2023-04-09T08:23:39;102344.75;;;16.27;61.39
59787;BME280;45672;51.612;5.536;2023-04-09T08:26:05;102342.41;;;17.03;57.76
59787;BME280;45672;51.612;5.536;2023-04-09T08:28:30;102343.88;;;16.71;56.78
59787;BME280;45672;51.612;5.536;2023-04-09T08:30:55;102342.19;;;16.44;57.27
59787;BME280;45672;51.612;5.536;2023-04-09T08:33:21;102341.84;;;17.26;58.60
59787;BME280;45672;51.612;5.536;2023-04-09T08:35:46;102335.69;;;19.21;52.76
59787;BME280;45672;51.612;5.536;2023-04-09T08:38:12;102346.63;;;20.82;49.17
59787;BME280;45672;51.612;5.536;2023-04-09T08:40:37;102344.41;;;22.17;43.65
59787;BME280;45672;51.612;5.536;2023-04-09T08:43:06;102342.94;;;22.71;44.26
59787;BME280;45672;51.612;5.536;2023-04-09T08:45:33;102347.75;;;23.66;41.02
59787;BME280;45672;51.612;5.536;2023-04-09T08:47:58;102343.84;;;24.35;38.83
59787;BME280;45672;51.612;5.536;2023-04-09T08:50:33;102336.88;;;24.86;40.46
59787;BME280;45672;51.612;5.536;2023-04-09T08:53:01;102340.75;;;25.10;36.60
59787;BME280;45672;51.612;5.536;2023-04-09T08:55:28;102334.16;;;25.70;35.12
59787;BME280;45672;51.612;5.536;2023-04-09T08:57:55;102334.19;;;25.25;35.63
59787;BME280;45672;51.612;5.536;2023-04-09T09:00:22;102326.13;;;25.50;35.57
59787;BME280;45672;51.612;5.536;2023-04-09T09:03:07;102325.13;;;25.70;37.95
59787;BME280;45672;51.612;5.536;2023-04-09T09:05:41;102331.56;;;25.82;36.16
59787;BME280;45672;51.612;5.536;2023-04-09T09:08:08;102329.06;;;25.80;34.82
59787;BME280;45672;51.612;5.536;2023-04-09T09:10:42;102333.88;;;26.10;35.61
59787;BME280;45672;51.612;5.536;2023-04-09T09:13:22;102329.75;;;26.45;35.32
59787;BME280;45672;51.612;5.536;2023-04-09T09:15:49;102330.66;;;26.82;31.49
59787;BME280;45672;51.612;5.536;2023-04-09T09:18:18;102342.22;;;27.33;31.70
59787;BME280;45672;51.612;5.536;2023-04-09T09:20:43;102327.72;;;27.63;30.71
59787;BME280;45672;51.612;5.536;2023-04-09T09:23:09;102329.81;;;28.03;29.41
59787;BME280;45672;51.612;5.536;2023-04-09T09:25:41;102324.34;;;28.51;30.37
59787;BME280;45672;51.612;5.536;2023-04-09T09:28:10;102318.00;;;27.91;29.97
59787;BME280;45672;51.612;5.536;2023-04-09T09:30:37;102322.88;;;27.35;30.38
59787;BME280;45672;51.612;5.536;2023-04-09T09:33:10;102321.78;;;27.36;30.52
59787;BME280;45672;51.612;5.536;2023-04-09T09:35:51;102324.22;;;28.58;35.07
59787;BME280;45672;51.612;5.536;2023-04-09T09:38:19;102319.34;;;28.24;28.04
59787;BME280;45672;51.612;5.536;2023-04-09T09:40:45;102316.44;;;27.11;29.50
59787;BME280;45672;51.612;5.536;2023-04-09T09:43:11;102310.47;;;26.83;30.46
59787;BME280;45672;51.612;5.536;2023-04-09T09:45:37;102311.69;;;27.37;29.58
59787;BME280;45672;51.612;5.536;2023-04-09T09:48:04;102317.16;;;27.37;29.82
59787;BME280;45672;51.612;5.536;2023-04-09T09:50:30;102305.63;;;27.34;29.18
59787;BME280;45672;51.612;5.536;2023-04-09T09:53:02;102310.66;;;27.38;29.86
59787;BME280;45672;51.612;5.536;2023-04-09T09:55:30;102308.88;;;27.97;29.53
59787;BME280;45672;51.612;5.536;2023-04-09T09:57:58;102301.25;;;28.59;27.81
59787;BME280;45672;51.612;5.536;2023-04-09T10:00:26;102289.28;;;28.00;28.06
59787;BME280;45672;51.612;5.536;2023-04-09T10:02:56;102291.44;;;26.58;31.42
59787;BME280;45672;51.612;5.536;2023-04-09T10:05:23;102289.22;;;26.30;30.97
59787;BME280;45672;51.612;5.536;2023-04-09T10:07:53;102282.69;;;27.05;30.22
59787;BME280;45672;51.612;5.536;2023-04-09T10:10:19;102283.69;;;25.86;30.66
59787;BME280;45672;51.612;5.536;2023-04-09T10:12:45;102283.66;;;24.90;32.26
59787;BME280;45672;51.612;5.536;2023-04-09T10:15:11;102283.56;;;23.51;33.68
59787;BME280;45672;51.612;5.536;2023-04-09T10:17:37;102278.81;;;22.28;36.32
59787;BME280;45672;51.612;5.536;2023-04-09T10:20:16;102276.81;;;21.44;38.51
59787;BME280;45672;51.612;5.536;2023-04-09T10:22:48;102281.06;;;20.80;38.73
59787;BME280;45672;51.612;5.536;2023-04-09T10:25:15;102267.88;;;20.32;40.30
59787;BME280;45672;51.612;5.536;2023-04-09T10:27:41;102267.81;;;19.87;41.04
59787;BME280;45672;51.612;5.536;2023-04-09T10:30:30;102266.97;;;19.40;43.03
59787;BME280;45672;51.612;5.536;2023-04-09T10:33:07;102259.41;;;19.04;43.04
59787;BME280;45672;51.612;5.536;2023-04-09T10:35:33;102256.97;;;18.78;42.67
59787;BME280;45672;51.612;5.536;2023-04-09T10:37:58;102258.31;;;18.90;43.49
59787;BME280;45672;51.612;5.536;2023-04-09T10:40:27;102245.97;;;18.96;43.55
59787;BME280;45672;51.612;5.536;2023-04-09T10:42:53;102240.28;;;18.74;42.99
59787;BME280;45672;51.612;5.536;2023-04-09T10:45:20;102247.75;;;18.64;43.31
59787;BME280;45672;51.612;5.536;2023-04-09T10:47:48;102242.38;;;18.56;44.39
59787;BME280;45672;51.612;5.536;2023-04-09T10:50:16;102239.50;;;18.66;43.87
59787;BME280;45672;51.612;5.536;2023-04-09T10:52:42;102236.19;;;18.47;42.52
59787;BME280;45672;51.612;5.536;2023-04-09T10:55:08;102233.38;;;18.32;43.77
59787;BME280;45672;51.612;5.536;2023-04-09T10:57:34;102233.56;;;18.22;42.77
59787;BME280;45672;51.612;5.536;2023-04-09T10:59:59;102232.75;;;17.97;43.56
59787;BME280;45672;51.612;5.536;2023-04-09T11:07:39;102232.75;;;18.05;42.39
59787;BME280;45672;51.612;5.536;2023-04-09T11:10:08;102228.72;;;17.68;43.14
59787;BME280;45672;51.612;5.536;2023-04-09T11:12:33;102216.94;;;17.53;43.07
59787;BME280;45672;51.612;5.536;2023-04-09T11:14:58;102217.94;;;17.52;43.54
59787;BME280;45672;51.612;5.536;2023-04-09T11:17:24;102215.59;;;17.49;42.56
59787;BME280;45672;51.612;5.536;2023-04-09T11:19:49;102215.44;;;17.58;42.79
59787;BME280;45672;51.612;5.536;2023-04-09T11:22:15;102223.66;;;17.82;42.05
59787;BME280;45672;51.612;5.536;2023-04-09T11:24:41;102213.56;;;17.84;41.56
59787;BME280;45672;51.612;5.536;2023-04-09T11:27:07;102215.75;;;17.88;41.80
59787;BME280;45672;51.612;5.536;2023-04-09T11:29:35;102216.41;;;17.82;42.42
59787;BME280;45672;51.612;5.536;2023-04-09T11:32:01;102206.50;;;17.74;41.98
59787;BME280;45672;51.612;5.536;2023-04-09T11:34:27;102213.56;;;17.92;41.66
59787;BME280;45672;51.612;5.536;2023-04-09T11:36:53;102211.88;;;17.99;41.83
59787;BME280;45672;51.612;5.536;2023-04-09T11:39:18;102211.34;;;18.12;41.95
59787;BME280;45672;51.612;5.536;2023-04-09T11:41:43;102199.41;;;18.15;41.30
59787;BME280;45672;51.612;5.536;2023-04-09T11:44:09;102208.44;;;18.38;40.87
59787;BME280;45672;51.612;5.536;2023-04-09T11:46:35;102208.06;;;18.41;40.77
59787;BME280;45672;51.612;5.536;2023-04-09T11:49:01;102205.78;;;18.22;40.21
59787;BME280;45672;51.612;5.536;2023-04-09T11:51:27;102191.84;;;18.02;41.26
59787;BME280;45672;51.612;5.536;2023-04-09T11:53:54;102189.00;;;17.79;40.80
59787;BME280;45672;51.612;5.536;2023-04-09T11:56:20;102195.06;;;17.48;42.65
59787;BME280;45672;51.612;5.536;2023-04-09T11:58:46;102199.25;;;17.26;41.76
59787;BME280;45672;51.612;5.536;2023-04-09T12:01:12;102195.69;;;17.00;42.11
59787;BME280;45672;51.612;5.536;2023-04-09T12:03:38;102190.22;;;16.84;43.08
59787;BME280;45672;51.612;5.536;2023-04-09T12:06:05;102187.81;;;16.72;43.57
59787;BME280;45672;51.612;5.536;2023-04-09T12:08:33;102186.53;;;16.85;42.29
59787;BME280;45672;51.612;5.536;2023-04-09T12:11:10;102185.34;;;16.79;42.32
59787;BME280;45672;51.612;5.536;2023-04-09T12:13:35;102191.97;;;16.93;41.42
59787;BME280;45672;51.612;5.536;2023-04-09T12:16:01;102184.81;;;16.76;41.29
59787;BME280;45672;51.612;5.536;2023-04-09T12:18:29;102185.56;;;16.51;41.41
59787;BME280;45672;51.612;5.536;2023-04-09T12:20:54;102193.41;;;16.36;41.55
59787;BME280;45672;51.612;5.536;2023-04-09T12:23:20;102193.41;;;16.10;41.95
59787;BME280;45672;51.612;5.536;2023-04-09T12:25:45;102180.88;;;15.93;42.60
59787;BME280;45672;51.612;5.536;2023-04-09T12:28:13;102186.66;;;15.80;44.39
59787;BME280;45672;51.612;5.536;2023-04-09T12:30:39;102186.97;;;15.77;43.73
59787;BME280;45672;51.612;5.536;2023-04-09T12:33:05;102190.78;;;15.74;43.68
59787;BME280;45672;51.612;5.536;2023-04-09T12:35:30;102184.38;;;15.85;43.85
59787;BME280;45672;51.612;5.536;2023-04-09T12:37:56;102188.78;;;15.94;42.63
59787;BME280;45672;51.612;5.536;2023-04-09T12:40:23;102182.97;;;16.07;42.04
59787;BME280;45672;51.612;5.536;2023-04-09T12:42:48;102176.63;;;16.08;41.64
59787;BME280;45672;51.612;5.536;2023-04-09T12:45:15;102168.47;;;15.92;42.83
59787;BME280;45672;51.612;5.536;2023-04-09T12:47:41;102170.00;;;15.94;43.28
59787;BME280;45672;51.612;5.536;2023-04-09T12:50:08;102174.63;;;15.84;42.99
59787;BME280;45672;51.612;5.536;2023-04-09T12:52:34;102172.25;;;15.81;42.73
59787;BME280;45672;51.612;5.536;2023-04-09T12:55:00;102170.69;;;15.78;44.02
59787;BME280;45672;51.612;5.536;2023-04-09T12:57:26;102173.31;;;15.88;43.46